sensor_id;sensor_type;location;lat;lon;timestamp;temperature;humidity
68691;DHT22;55675;49.588;8.640;2023-03-01T00:00:34;3.20;63.20
68691;DHT22;55675;49.588;8.640;2023-03-01T00:03:00;3.10;63.20
68691;DHT22;55675;49.588;8.640;2023-03-01T00:05:25;3.10;63.60
68691;DHT22;55675;49.588;8.640;2023-03-01T00:07:52;3.10;63.50
68691;DHT22;55675;49.588;8.640;2023-03-01T00:10:17;3.10;64.00
68691;DHT22;55675;49.588;8.640;2023-03-01T00:12:43;3.10;64.00
68691;DHT22;55675;49.588;8.640;2023-03-01T00:15:08;3.00;64.10
68691;DHT22;55675;49.588;8.640;2023-03-01T00:17:34;3.00;64.30
68691;DHT22;55675;49.588;8.640;2023-03-01T00:19:59;3.00;64.30
68691;DHT22;55675;49.588;8.640;2023-03-01T00:22:26;3.00;64.30
68691;DHT22;55675;49.588;8.640;2023-03-01T00:24:52;3.00;64.50
68691;DHT22;55675;49.588;8.640;2023-03-01T00:27:17;3.00;64.50
68691;DHT22;55675;49.588;8.640;2023-03-01T00:29:43;3.00;64.60
68691;DHT22;55675;49.588;8.640;2023-03-01T00:32:08;3.00;64.60
68691;DHT22;55675;49.588;8.640;2023-03-01T00:34:34;3.00;64.60
68691;DHT22;55675;49.588;8.640;2023-03-01T00:36:59;3.00;64.60
68691;DHT22;55675;49.588;8.640;2023-03-01T00:39:30;3.00;64.60
68691;DHT22;55675;49.588;8.640;2023-03-01T00:41:56;3.00;64.30
68691;DHT22;55675;49.588;8.640;2023-03-01T00:44:21;2.90;65.40
68691;DHT22;55675;49.588;8.640;2023-03-01T00:46:47;2.90;65.80
68691;DHT22;55675;49.588;8.640;2023-03-01T00:49:13;2.80;65.80
68691;DHT22;55675;49.588;8.640;2023-03-01T00:51:38;2.70;66.10
68691;DHT22;55675;49.588;8.640;2023-03-01T00:54:09;2.70;66.30
68691;DHT22;55675;49.588;8.640;2023-03-01T00:56:34;2.70;66.30
68691;DHT22;55675;49.588;8.640;2023-03-01T00:59:00;2.60;66.10
68691;DHT22;55675;49.588;8.640;2023-03-01T01:01:27;2.60;66.60
68691;DHT22;55675;49.588;8.640;2023-03-01T01:03:59;2.60;66.60
68691;DHT22;55675;49.588;8.640;2023-03-01T01:06:26;2.60;66.60
68691;DHT22;55675;49.588;8.640;2023-03-01T01:08:52;2.60;66.40
68691;DHT22;55675;49.588;8.640;2023-03-01T01:11:19;2.60;66.50
68691;DHT22;55675;49.588;8.640;2023-03-01T01:13:45;2.50;66.10
68691;DHT22;55675;49.588;8.640;2023-03-01T01:16:10;2.50;66.00
68691;DHT22;55675;49.588;8.640;2023-03-01T01:18:36;2.50;66.80
68691;DHT22;55675;49.588;8.640;2023-03-01T01:21:08;2.50;66.90
68691;DHT22;55675;49.588;8.640;2023-03-01T01:23:34;2.50;67.40
68691;DHT22;55675;49.588;8.640;2023-03-01T01:26:03;2.50;66.90
68691;DHT22;55675;49.588;8.640;2023-03-01T01:28:28;2.50;66.70
68691;DHT22;55675;49.588;8.640;2023-03-01T01:30:54;2.50;66.90
68691;DHT22;55675;49.588;8.640;2023-03-01T01:33:19;2.50;67.10
68691;DHT22;55675;49.588;8.640;2023-03-01T01:35:45;2.50;66.90
68691;DHT22;55675;49.588;8.640;2023-03-01T01:38:10;2.50;66.90
68691;DHT22;55675;49.588;8.640;2023-03-01T01:40:42;2.50;67.00
68691;DHT22;55675;49.588;8.640;2023-03-01T01:43:11;2.50;66.90
68691;DHT22;55675;49.588;8.640;2023-03-01T01:45:38;2.50;67.00
68691;DHT22;55675;49.588;8.640;2023-03-01T01:48:04;2.50;66.90
68691;DHT22;55675;49.588;8.640;2023-03-01T01:50:31;2.50;66.60
68691;DHT22;55675;49.588;8.640;2023-03-01T01:53:04;2.50;67.10
68691;DHT22;55675;49.588;8.640;2023-03-01T01:55:30;2.60;67.40
68691;DHT22;55675;49.588;8.640;2023-03-01T01:57:58;2.50;67.20
68691;DHT22;55675;49.588;8.640;2023-03-01T02:00:28;2.50;67.50
68691;DHT22;55675;49.588;8.640;2023-03-01T02:02:59;2.60;67.50
68691;DHT22;55675;49.588;8.640;2023-03-01T02:07:50;2.60;67.80
68691;DHT22;55675;49.588;8.640;2023-03-01T02:10:16;2.60;67.70
68691;DHT22;55675;49.588;8.640;2023-03-01T02:12:42;2.70;67.70
68691;DHT22;55675;49.588;8.640;2023-03-01T02:15:14;2.70;67.50
68691;DHT22;55675;49.588;8.640;2023-03-01T02:17:39;2.70;67.50
68691;DHT22;55675;49.588;8.640;2023-03-01T02:22:49;2.70;67.00
68691;DHT22;55675;49.588;8.640;2023-03-01T02:27:49;2.80;67.00
68691;DHT22;55675;49.588;8.640;2023-03-01T02:30:18;2.80;67.10
68691;DHT22;55675;49.588;8.640;2023-03-01T02:32:44;2.80;66.80
68691;DHT22;55675;49.588;8.640;2023-03-01T02:35:10;2.80;66.60
68691;DHT22;55675;49.588;8.640;2023-03-01T02:37:37;2.80;66.60
68691;DHT22;55675;49.588;8.640;2023-03-01T02:40:05;2.80;66.60
68691;DHT22;55675;49.588;8.640;2023-03-01T02:42:34;2.90;66.60
68691;DHT22;55675;49.588;8.640;2023-03-01T02:45:00;2.90;66.50
68691;DHT22;55675;49.588;8.640;2023-03-01T02:47:26;2.90;66.40
68691;DHT22;55675;49.588;8.640;2023-03-01T02:49:51;2.90;66.40
68691;DHT22;55675;49.588;8.640;2023-03-01T02:52:21;2.90;66.30
68691;DHT22;55675;49.588;8.640;2023-03-01T02:54:57;2.90;66.20
68691;DHT22;55675;49.588;8.640;2023-03-01T02:57:25;2.90;66.20
68691;DHT22;55675;49.588;8.640;2023-03-01T02:59:52;2.90;66.10
68691;DHT22;55675;49.588;8.640;2023-03-01T03:02:24;2.90;66.00
68691;DHT22;55675;49.588;8.640;2023-03-01T03:05:11;2.90;66.00
68691;DHT22;55675;49.588;8.640;2023-03-01T03:07:38;2.90;66.00
68691;DHT22;55675;49.588;8.640;2023-03-01T03:10:05;2.90;65.90
68691;DHT22;55675;49.588;8.640;2023-03-01T03:12:31;2.90;65.90
68691;DHT22;55675;49.588;8.640;2023-03-01T03:14:56;2.90;65.90
68691;DHT22;55675;49.588;8.640;2023-03-01T03:17:22;2.90;65.90
68691;DHT22;55675;49.588;8.640;2023-03-01T03:19:47;2.90;66.00
68691;DHT22;55675;49.588;8.640;2023-03-01T03:22:13;2.90;65.90
68691;DHT22;55675;49.588;8.640;2023-03-01T03:24:38;2.90;65.90
68691;DHT22;55675;49.588;8.640;2023-03-01T03:27:04;2.90;65.80
68691;DHT22;55675;49.588;8.640;2023-03-01T03:29:30;2.90;65.80
68691;DHT22;55675;49.588;8.640;2023-03-01T03:31:55;2.90;65.80
68691;DHT22;55675;49.588;8.640;2023-03-01T03:34:21;3.00;66.00
68691;DHT22;55675;49.588;8.640;2023-03-01T03:36:47;2.90;65.90
68691;DHT22;55675;49.588;8.640;2023-03-01T03:39:12;2.90;65.90
68691;DHT22;55675;49.588;8.640;2023-03-01T03:41:37;2.90;65.80
68691;DHT22;55675;49.588;8.640;2023-03-01T03:44:03;2.90;66.00
68691;DHT22;55675;49.588;8.640;2023-03-01T03:46:28;2.90;66.20
68691;DHT22;55675;49.588;8.640;2023-03-01T03:48:54;2.90;66.30
68691;DHT22;55675;49.588;8.640;2023-03-01T03:51:19;2.90;66.50
68691;DHT22;55675;49.588;8.640;2023-03-01T03:53:47;2.90;66.50
68691;DHT22;55675;49.588;8.640;2023-03-01T03:56:13;2.80;66.70
68691;DHT22;55675;49.588;8.640;2023-03-01T03:58:39;2.80;66.70
68691;DHT22;55675;49.588;8.640;2023-03-01T04:01:04;2.80;66.70
68691;DHT22;55675;49.588;8.640;2023-03-01T04:03:30;2.80;67.00
68691;DHT22;55675;49.588;8.640;2023-03-01T04:05:58;2.80;66.90
68691;DHT22;55675;49.588;8.640;2023-03-01T04:08:23;2.80;67.10
68691;DHT22;55675;49.588;8.640;2023-03-01T04:10:50;2.80;67.10
68691;DHT22;55675;49.588;8.640;2023-03-01T04:13:17;2.80;67.20
68691;DHT22;55675;49.588;8.640;2023-03-01T04:15:45;2.80;67.20
68691;DHT22;55675;49.588;8.640;2023-03-01T04:18:14;2.80;67.30
68691;DHT22;55675;49.588;8.640;2023-03-01T04:20:39;2.80;67.30
68691;DHT22;55675;49.588;8.640;2023-03-01T04:23:09;2.80;67.40
68691;DHT22;55675;49.588;8.640;2023-03-01T04:28:19;2.80;67.10
68691;DHT22;55675;49.588;8.640;2023-03-01T04:30:44;2.80;67.20
68691;DHT22;55675;49.588;8.640;2023-03-01T04:33:10;2.80;67.10
68691;DHT22;55675;49.588;8.640;2023-03-01T04:35:36;2.80;67.10
68691;DHT22;55675;49.588;8.640;2023-03-01T04:38:01;2.80;67.70
68691;DHT22;55675;49.588;8.640;2023-03-01T04:40:27;2.90;67.00
68691;DHT22;55675;49.588;8.640;2023-03-01T04:42:52;2.90;67.00
68691;DHT22;55675;49.588;8.640;2023-03-01T04:45:18;2.80;66.80
68691;DHT22;55675;49.588;8.640;2023-03-01T04:47:44;2.90;66.80
68691;DHT22;55675;49.588;8.640;2023-03-01T04:50:12;2.90;66.80
68691;DHT22;55675;49.588;8.640;2023-03-01T04:52:37;2.90;66.70
68691;DHT22;55675;49.588;8.640;2023-03-01T04:55:03;2.90;66.60
68691;DHT22;55675;49.588;8.640;2023-03-01T04:57:29;2.90;66.60
68691;DHT22;55675;49.588;8.640;2023-03-01T04:59:54;3.00;66.50
68691;DHT22;55675;49.588;8.640;2023-03-01T05:02:20;3.00;66.40
68691;DHT22;55675;49.588;8.640;2023-03-01T05:04:45;3.00;66.30
68691;DHT22;55675;49.588;8.640;2023-03-01T05:07:11;3.00;66.30
68691;DHT22;55675;49.588;8.640;2023-03-01T05:09:38;3.00;66.30
68691;DHT22;55675;49.588;8.640;2023-03-01T05:12:03;3.00;66.10
68691;DHT22;55675;49.588;8.640;2023-03-01T05:14:29;3.10;66.80
68691;DHT22;55675;49.588;8.640;2023-03-01T05:16:54;3.10;66.00
68691;DHT22;55675;49.588;8.640;2023-03-01T05:19:20;3.20;66.00
68691;DHT22;55675;49.588;8.640;2023-03-01T05:21:48;3.20;65.90
68691;DHT22;55675;49.588;8.640;2023-03-01T05:24:34;3.20;65.70
68691;DHT22;55675;49.588;8.640;2023-03-01T05:27:01;3.20;65.60
68691;DHT22;55675;49.588;8.640;2023-03-01T05:29:27;3.20;65.50
68691;DHT22;55675;49.588;8.640;2023-03-01T05:31:54;3.30;65.40
68691;DHT22;55675;49.588;8.640;2023-03-01T05:34:32;3.30;65.40
68691;DHT22;55675;49.588;8.640;2023-03-01T05:36:58;3.30;65.20
68691;DHT22;55675;49.588;8.640;2023-03-01T05:39:24;3.30;65.00
68691;DHT22;55675;49.588;8.640;2023-03-01T05:41:57;3.40;64.90
68691;DHT22;55675;49.588;8.640;2023-03-01T05:44:23;3.40;64.90
68691;DHT22;55675;49.588;8.640;2023-03-01T05:46:49;3.40;64.80
68691;DHT22;55675;49.588;8.640;2023-03-01T05:49:15;3.40;64.70
68691;DHT22;55675;49.588;8.640;2023-03-01T05:51:41;3.40;64.60
68691;DHT22;55675;49.588;8.640;2023-03-01T05:54:08;3.50;64.80
68691;DHT22;55675;49.588;8.640;2023-03-01T05:56:34;3.50;64.70
68691;DHT22;55675;49.588;8.640;2023-03-01T05:58:59;3.50;64.70
68691;DHT22;55675;49.588;8.640;2023-03-01T06:01:25;3.50;64.30
68691;DHT22;55675;49.588;8.640;2023-03-01T06:03:50;3.50;64.20
68691;DHT22;55675;49.588;8.640;2023-03-01T06:06:16;3.40;63.70
68691;DHT22;55675;49.588;8.640;2023-03-01T06:08:42;3.40;64.10
68691;DHT22;55675;49.588;8.640;2023-03-01T06:11:07;3.40;64.20
68691;DHT22;55675;49.588;8.640;2023-03-01T06:13:33;3.40;64.10
68691;DHT22;55675;49.588;8.640;2023-03-01T06:15:58;3.50;64.30
68691;DHT22;55675;49.588;8.640;2023-03-01T06:18:23;3.40;64.20
68691;DHT22;55675;49.588;8.640;2023-03-01T06:20:53;3.50;64.30
68691;DHT22;55675;49.588;8.640;2023-03-01T06:23:18;3.50;64.30
68691;DHT22;55675;49.588;8.640;2023-03-01T06:25:44;3.50;64.30
68691;DHT22;55675;49.588;8.640;2023-03-01T06:28:09;3.50;64.10
68691;DHT22;55675;49.588;8.640;2023-03-01T06:30:35;3.60;64.00
68691;DHT22;55675;49.588;8.640;2023-03-01T06:33:00;3.60;63.80
68691;DHT22;55675;49.588;8.640;2023-03-01T06:35:28;3.60;63.80
68691;DHT22;55675;49.588;8.640;2023-03-01T06:37:55;3.70;63.70
68691;DHT22;55675;49.588;8.640;2023-03-01T06:40:20;3.70;63.50
68691;DHT22;55675;49.588;8.640;2023-03-01T06:42:50;3.80;62.90
68691;DHT22;55675;49.588;8.640;2023-03-01T06:45:16;3.80;62.70
68691;DHT22;55675;49.588;8.640;2023-03-01T06:47:42;3.80;62.60
68691;DHT22;55675;49.588;8.640;2023-03-01T06:50:07;3.90;62.50
68691;DHT22;55675;49.588;8.640;2023-03-01T06:52:33;3.90;62.40
68691;DHT22;55675;49.588;8.640;2023-03-01T06:54:59;4.00;62.20
68691;DHT22;55675;49.588;8.640;2023-03-01T06:57:24;4.10;62.30
68691;DHT22;55675;49.588;8.640;2023-03-01T06:59:50;4.10;62.00
68691;DHT22;55675;49.588;8.640;2023-03-01T07:02:15;4.20;62.10
68691;DHT22;55675;49.588;8.640;2023-03-01T07:04:41;4.20;61.70
68691;DHT22;55675;49.588;8.640;2023-03-01T07:07:06;4.20;61.70
68691;DHT22;55675;49.588;8.640;2023-03-01T07:09:32;4.30;61.50
68691;DHT22;55675;49.588;8.640;2023-03-01T07:11:57;4.30;61.50
68691;DHT22;55675;49.588;8.640;2023-03-01T07:14:23;4.30;61.50
68691;DHT22;55675;49.588;8.640;2023-03-01T07:16:52;4.40;61.20
68691;DHT22;55675;49.588;8.640;2023-03-01T07:19:17;4.40;61.00
68691;DHT22;55675;49.588;8.640;2023-03-01T07:21:43;4.40;61.20
68691;DHT22;55675;49.588;8.640;2023-03-01T07:24:08;4.50;61.10
68691;DHT22;55675;49.588;8.640;2023-03-01T07:26:34;4.60;61.20
68691;DHT22;55675;49.588;8.640;2023-03-01T07:29:00;4.60;61.10
68691;DHT22;55675;49.588;8.640;2023-03-01T07:31:26;4.70;61.10
68691;DHT22;55675;49.588;8.640;2023-03-01T07:33:53;4.60;60.60
68691;DHT22;55675;49.588;8.640;2023-03-01T07:36:19;4.70;60.70
68691;DHT22;55675;49.588;8.640;2023-03-01T07:38:45;4.70;60.80
68691;DHT22;55675;49.588;8.640;2023-03-01T07:41:10;4.80;60.90
68691;DHT22;55675;49.588;8.640;2023-03-01T07:43:36;4.80;60.60
68691;DHT22;55675;49.588;8.640;2023-03-01T07:46:01;4.80;60.50
68691;DHT22;55675;49.588;8.640;2023-03-01T07:48:27;4.90;59.90
68691;DHT22;55675;49.588;8.640;2023-03-01T07:50:53;4.90;60.00
68691;DHT22;55675;49.588;8.640;2023-03-01T07:53:19;5.00;60.20
68691;DHT22;55675;49.588;8.640;2023-03-01T07:55:44;5.00;59.70
68691;DHT22;55675;49.588;8.640;2023-03-01T07:58:09;5.00;59.50
68691;DHT22;55675;49.588;8.640;2023-03-01T08:00:35;5.10;59.30
68691;DHT22;55675;49.588;8.640;2023-03-01T08:03:00;5.10;58.90
68691;DHT22;55675;49.588;8.640;2023-03-01T08:05:27;5.10;59.00
68691;DHT22;55675;49.588;8.640;2023-03-01T08:07:52;5.20;59.20
68691;DHT22;55675;49.588;8.640;2023-03-01T08:10:18;5.20;58.80
68691;DHT22;55675;49.588;8.640;2023-03-01T08:12:44;5.30;58.50
68691;DHT22;55675;49.588;8.640;2023-03-01T08:15:09;5.30;58.40
68691;DHT22;55675;49.588;8.640;2023-03-01T08:17:38;5.30;58.20
68691;DHT22;55675;49.588;8.640;2023-03-01T08:20:03;5.30;58.30
68691;DHT22;55675;49.588;8.640;2023-03-01T08:22:32;5.30;58.40
68691;DHT22;55675;49.588;8.640;2023-03-01T08:24:57;5.40;58.50
68691;DHT22;55675;49.588;8.640;2023-03-01T08:27:23;5.40;58.30
68691;DHT22;55675;49.588;8.640;2023-03-01T08:29:48;5.50;58.20
68691;DHT22;55675;49.588;8.640;2023-03-01T08:32:14;5.50;57.60
68691;DHT22;55675;49.588;8.640;2023-03-01T08:34:39;5.60;57.80
68691;DHT22;55675;49.588;8.640;2023-03-01T08:37:04;5.70;57.20
68691;DHT22;55675;49.588;8.640;2023-03-01T08:39:30;5.70;57.00
68691;DHT22;55675;49.588;8.640;2023-03-01T08:41:56;5.80;56.60
68691;DHT22;55675;49.588;8.640;2023-03-01T08:44:21;5.80;56.60
68691;DHT22;55675;49.588;8.640;2023-03-01T08:46:47;5.90;56.20
68691;DHT22;55675;49.588;8.640;2023-03-01T08:49:15;5.90;56.30
68691;DHT22;55675;49.588;8.640;2023-03-01T08:51:41;5.90;56.00
68691;DHT22;55675;49.588;8.640;2023-03-01T08:54:09;5.90;56.10
68691;DHT22;55675;49.588;8.640;2023-03-01T08:56:36;6.00;56.20
68691;DHT22;55675;49.588;8.640;2023-03-01T08:59:01;6.10;56.20
68691;DHT22;55675;49.588;8.640;2023-03-01T09:01:27;6.20;56.00
68691;DHT22;55675;49.588;8.640;2023-03-01T09:03:52;6.20;55.30
68691;DHT22;55675;49.588;8.640;2023-03-01T09:06:18;6.20;55.80
68691;DHT22;55675;49.588;8.640;2023-03-01T09:08:46;6.30;55.60
68691;DHT22;55675;49.588;8.640;2023-03-01T09:11:13;6.40;55.50
68691;DHT22;55675;49.588;8.640;2023-03-01T09:13:39;6.40;55.10
68691;DHT22;55675;49.588;8.640;2023-03-01T09:16:05;6.50;54.80
68691;DHT22;55675;49.588;8.640;2023-03-01T09:18:31;6.50;55.40
68691;DHT22;55675;49.588;8.640;2023-03-01T09:21:01;6.60;55.00
68691;DHT22;55675;49.588;8.640;2023-03-01T09:23:26;6.60;54.20
68691;DHT22;55675;49.588;8.640;2023-03-01T09:25:52;6.60;54.50
68691;DHT22;55675;49.588;8.640;2023-03-01T09:28:17;6.60;53.90
68691;DHT22;55675;49.588;8.640;2023-03-01T09:30:43;6.70;54.20
68691;DHT22;55675;49.588;8.640;2023-03-01T09:33:09;6.70;54.10
68691;DHT22;55675;49.588;8.640;2023-03-01T09:35:40;6.80;54.10
68691;DHT22;55675;49.588;8.640;2023-03-01T09:38:11;6.80;54.00
68691;DHT22;55675;49.588;8.640;2023-03-01T09:40:37;6.90;54.00
68691;DHT22;55675;49.588;8.640;2023-03-01T09:43:54;7.00;53.70
68691;DHT22;55675;49.588;8.640;2023-03-01T09:45:54;7.10;53.60
68691;DHT22;55675;49.588;8.640;2023-03-01T09:48:21;7.20;53.60
68691;DHT22;55675;49.588;8.640;2023-03-01T09:50:49;7.30;53.60
68691;DHT22;55675;49.588;8.640;2023-03-01T09:53:16;7.30;53.30
68691;DHT22;55675;49.588;8.640;2023-03-01T09:55:53;7.40;53.00
68691;DHT22;55675;49.588;8.640;2023-03-01T10:01:04;7.60;52.30
68691;DHT22;55675;49.588;8.640;2023-03-01T10:03:37;7.60;51.40
68691;DHT22;55675;49.588;8.640;2023-03-01T10:06:06;7.60;51.40
68691;DHT22;55675;49.588;8.640;2023-03-01T10:08:43;7.60;51.90
68691;DHT22;55675;49.588;8.640;2023-03-01T10:11:17;7.70;51.60
68691;DHT22;55675;49.588;8.640;2023-03-01T10:13:52;7.70;51.60
68691;DHT22;55675;49.588;8.640;2023-03-01T10:16:21;7.80;51.60
68691;DHT22;55675;49.588;8.640;2023-03-01T10:18:51;8.00;52.00
68691;DHT22;55675;49.588;8.640;2023-03-01T10:21:19;8.10;51.40
68691;DHT22;55675;49.588;8.640;2023-03-01T10:23:45;8.10;51.30
68691;DHT22;55675;49.588;8.640;2023-03-01T10:31:15;8.50;50.90
68691;DHT22;55675;49.588;8.640;2023-03-01T10:33:41;8.60;50.70
68691;DHT22;55675;49.588;8.640;2023-03-01T10:36:07;8.70;50.70
68691;DHT22;55675;49.588;8.640;2023-03-01T10:41:19;8.70;49.10
68691;DHT22;55675;49.588;8.640;2023-03-01T10:43:46;8.70;49.80
68691;DHT22;55675;49.588;8.640;2023-03-01T10:48:50;8.90;49.70
68691;DHT22;55675;49.588;8.640;2023-03-01T10:51:29;9.00;49.30
68691;DHT22;55675;49.588;8.640;2023-03-01T10:53:55;9.10;49.10
68691;DHT22;55675;49.588;8.640;2023-03-01T10:56:20;9.20;50.10
68691;DHT22;55675;49.588;8.640;2023-03-01T10:58:59;9.20;49.10
68691;DHT22;55675;49.588;8.640;2023-03-01T11:01:26;9.30;49.40
68691;DHT22;55675;49.588;8.640;2023-03-01T11:06:30;9.50;48.00
68691;DHT22;55675;49.588;8.640;2023-03-01T11:08:55;9.50;47.70
68691;DHT22;55675;49.588;8.640;2023-03-01T11:11:31;9.50;47.50
68691;DHT22;55675;49.588;8.640;2023-03-01T11:13:58;9.50;47.40
68691;DHT22;55675;49.588;8.640;2023-03-01T11:16:28;9.50;47.20
68691;DHT22;55675;49.588;8.640;2023-03-01T11:18:58;9.60;47.90
68691;DHT22;55675;49.588;8.640;2023-03-01T11:21:24;9.70;47.70
68691;DHT22;55675;49.588;8.640;2023-03-01T11:23:50;9.70;47.60
68691;DHT22;55675;49.588;8.640;2023-03-01T11:26:16;9.80;46.90
68691;DHT22;55675;49.588;8.640;2023-03-01T11:28:42;9.90;47.10
68691;DHT22;55675;49.588;8.640;2023-03-01T11:31:10;9.90;47.50
68691;DHT22;55675;49.588;8.640;2023-03-01T11:36:07;10.00;47.10
68691;DHT22;55675;49.588;8.640;2023-03-01T11:38:34;10.10;47.00
68691;DHT22;55675;49.588;8.640;2023-03-01T11:51:09;10.40;45.60
68691;DHT22;55675;49.588;8.640;2023-03-01T11:53:55;10.50;45.20
68691;DHT22;55675;49.588;8.640;2023-03-01T11:56:40;10.50;44.70
68691;DHT22;55675;49.588;8.640;2023-03-01T11:59:27;10.50;45.00
68691;DHT22;55675;49.588;8.640;2023-03-01T12:02:11;10.60;44.90
68691;DHT22;55675;49.588;8.640;2023-03-01T12:10:32;10.70;44.80
68691;DHT22;55675;49.588;8.640;2023-03-01T12:13:13;10.90;44.70
68691;DHT22;55675;49.588;8.640;2023-03-01T12:15:48;10.90;44.60
68691;DHT22;55675;49.588;8.640;2023-03-01T12:21:03;11.20;44.50
68691;DHT22;55675;49.588;8.640;2023-03-01T12:23:50;11.20;44.00
68691;DHT22;55675;49.588;8.640;2023-03-01T12:26:23;11.30;43.50
68691;DHT22;55675;49.588;8.640;2023-03-01T12:34:20;11.60;42.40
68691;DHT22;55675;49.588;8.640;2023-03-01T12:42:31;11.70;42.50
68691;DHT22;55675;49.588;8.640;2023-03-01T12:45:12;11.80;41.70
68691;DHT22;55675;49.588;8.640;2023-03-01T12:47:54;11.80;41.60
68691;DHT22;55675;49.588;8.640;2023-03-01T12:50:24;11.90;41.30
68691;DHT22;55675;49.588;8.640;2023-03-01T12:52:51;11.90;41.40
68691;DHT22;55675;49.588;8.640;2023-03-01T12:55:21;12.00;41.40
68691;DHT22;55675;49.588;8.640;2023-03-01T12:57:56;12.10;41.60
68691;DHT22;55675;49.588;8.640;2023-03-01T13:00:36;12.20;41.20
68691;DHT22;55675;49.588;8.640;2023-03-01T13:06:14;12.40;40.40
68691;DHT22;55675;49.588;8.640;2023-03-01T13:08:27;12.50;40.10
68691;DHT22;55675;49.588;8.640;2023-03-01T13:11:02;12.60;39.90
68691;DHT22;55675;49.588;8.640;2023-03-01T13:13:28;12.70;39.50
68691;DHT22;55675;49.588;8.640;2023-03-01T13:15:54;12.70;39.30
68691;DHT22;55675;49.588;8.640;2023-03-01T13:20:49;12.80;39.00
68691;DHT22;55675;49.588;8.640;2023-03-01T13:30:59;13.10;39.00
68691;DHT22;55675;49.588;8.640;2023-03-01T13:35:57;13.30;38.60
68691;DHT22;55675;49.588;8.640;2023-03-01T13:38:42;13.40;37.70
68691;DHT22;55675;49.588;8.640;2023-03-01T13:41:11;13.60;37.50
68691;DHT22;55675;49.588;8.640;2023-03-01T13:43:37;15.90;37.00
68691;DHT22;55675;49.588;8.640;2023-03-01T13:48:36;20.90;29.40
68691;DHT22;55675;49.588;8.640;2023-03-01T13:51:10;22.60;25.60
68691;DHT22;55675;49.588;8.640;2023-03-01T13:53:40;24.60;24.60
68691;DHT22;55675;49.588;8.640;2023-03-01T13:56:11;26.60;23.00
68691;DHT22;55675;49.588;8.640;2023-03-01T13:58:59;28.90;22.00
68691;DHT22;55675;49.588;8.640;2023-03-01T14:01:29;31.20;20.10
68691;DHT22;55675;49.588;8.640;2023-03-01T14:03:56;32.80;17.80
68691;DHT22;55675;49.588;8.640;2023-03-01T14:06:27;33.60;15.90
68691;DHT22;55675;49.588;8.640;2023-03-01T14:09:05;33.70;15.50
68691;DHT22;55675;49.588;8.640;2023-03-01T14:19:30;27.10;16.80
68691;DHT22;55675;49.588;8.640;2023-03-01T14:22:12;24.70;18.50
68691;DHT22;55675;49.588;8.640;2023-03-01T14:24:39;22.90;19.50
68691;DHT22;55675;49.588;8.640;2023-03-01T14:27:09;21.30;21.10
68691;DHT22;55675;49.588;8.640;2023-03-01T14:29:36;20.10;22.70
68691;DHT22;55675;49.588;8.640;2023-03-01T14:32:09;19.20;23.40
68691;DHT22;55675;49.588;8.640;2023-03-01T14:34:35;18.50;24.90
68691;DHT22;55675;49.588;8.640;2023-03-01T14:39:41;17.30;26.70
68691;DHT22;55675;49.588;8.640;2023-03-01T14:42:06;17.00;27.20
68691;DHT22;55675;49.588;8.640;2023-03-01T14:44:32;17.00;27.50
68691;DHT22;55675;49.588;8.640;2023-03-01T14:47:02;17.30;27.70
68691;DHT22;55675;49.588;8.640;2023-03-01T14:49:29;17.50;27.10
68691;DHT22;55675;49.588;8.640;2023-03-01T14:54:24;17.20;27.50
68691;DHT22;55675;49.588;8.640;2023-03-01T14:56:51;17.60;27.80
68691;DHT22;55675;49.588;8.640;2023-03-01T14:59:23;18.70;27.50
68691;DHT22;55675;49.588;8.640;2023-03-01T15:01:55;20.00;26.40
68691;DHT22;55675;49.588;8.640;2023-03-01T15:04:22;21.00;25.50
68691;DHT22;55675;49.588;8.640;2023-03-01T15:06:54;22.40;24.20
68691;DHT22;55675;49.588;8.640;2023-03-01T15:09:21;23.80;22.80
68691;DHT22;55675;49.588;8.640;2023-03-01T15:11:47;25.00;21.50
68691;DHT22;55675;49.588;8.640;2023-03-01T15:14:48;26.40;20.40
68691;DHT22;55675;49.588;8.640;2023-03-01T15:17:26;27.80;19.30
68691;DHT22;55675;49.588;8.640;2023-03-01T15:19:54;28.90;18.30
68691;DHT22;55675;49.588;8.640;2023-03-01T15:22:20;29.70;17.60
68691;DHT22;55675;49.588;8.640;2023-03-01T15:24:50;30.30;17.20
68691;DHT22;55675;49.588;8.640;2023-03-01T15:27:21;30.60;16.50
68691;DHT22;55675;49.588;8.640;2023-03-01T15:29:59;31.00;16.30
68691;DHT22;55675;49.588;8.640;2023-03-01T15:34:53;31.00;15.90
68691;DHT22;55675;49.588;8.640;2023-03-01T15:37:47;31.00;15.60
68691;DHT22;55675;49.588;8.640;2023-03-01T15:40:31;30.90;15.40
68691;DHT22;55675;49.588;8.640;2023-03-01T15:43:01;30.90;15.50
68691;DHT22;55675;49.588;8.640;2023-03-01T15:45:29;30.70;15.00
68691;DHT22;55675;49.588;8.640;2023-03-01T15:48:14;30.50;15.60
68691;DHT22;55675;49.588;8.640;2023-03-01T15:50:41;30.40;15.60
68691;DHT22;55675;49.588;8.640;2023-03-01T15:53:13;30.40;15.90
68691;DHT22;55675;49.588;8.640;2023-03-01T15:55:40;30.40;16.10
68691;DHT22;55675;49.588;8.640;2023-03-01T15:58:18;30.40;15.80
68691;DHT22;55675;49.588;8.640;2023-03-01T16:00:45;30.30;15.80
68691;DHT22;55675;49.588;8.640;2023-03-01T16:03:12;30.10;15.40
68691;DHT22;55675;49.588;8.640;2023-03-01T16:05:38;29.50;15.50
68691;DHT22;55675;49.588;8.640;2023-03-01T16:08:05;28.90;15.80
68691;DHT22;55675;49.588;8.640;2023-03-01T16:10:35;28.50;16.10
68691;DHT22;55675;49.588;8.640;2023-03-01T16:13:01;28.20;16.50
68691;DHT22;55675;49.588;8.640;2023-03-01T16:15:31;28.00;16.70
68691;DHT22;55675;49.588;8.640;2023-03-01T16:17:57;27.80;16.70
68691;DHT22;55675;49.588;8.640;2023-03-01T16:20:26;27.40;17.20
68691;DHT22;55675;49.588;8.640;2023-03-01T16:22:52;27.10;17.50
68691;DHT22;55675;49.588;8.640;2023-03-01T16:25:20;26.80;17.70
68691;DHT22;55675;49.588;8.640;2023-03-01T16:27:48;26.30;17.70
68691;DHT22;55675;49.588;8.640;2023-03-01T16:30:15;25.80;18.00
68691;DHT22;55675;49.588;8.640;2023-03-01T16:32:42;25.20;18.30
68691;DHT22;55675;49.588;8.640;2023-03-01T16:35:10;24.70;18.80
68691;DHT22;55675;49.588;8.640;2023-03-01T16:37:36;24.10;19.20
68691;DHT22;55675;49.588;8.640;2023-03-01T16:40:03;23.40;19.70
68691;DHT22;55675;49.588;8.640;2023-03-01T16:42:33;22.90;20.20
68691;DHT22;55675;49.588;8.640;2023-03-01T16:44:59;22.40;20.70
68691;DHT22;55675;49.588;8.640;2023-03-01T16:47:25;21.70;20.70
68691;DHT22;55675;49.588;8.640;2023-03-01T16:49:51;21.20;21.10
68691;DHT22;55675;49.588;8.640;2023-03-01T16:52:17;20.60;21.50
68691;DHT22;55675;49.588;8.640;2023-03-01T16:54:42;19.80;22.20
68691;DHT22;55675;49.588;8.640;2023-03-01T16:57:08;18.80;22.40
68691;DHT22;55675;49.588;8.640;2023-03-01T16:59:33;17.80;23.20
68691;DHT22;55675;49.588;8.640;2023-03-01T17:02:01;16.90;24.60
68691;DHT22;55675;49.588;8.640;2023-03-01T17:04:27;16.20;24.90
68691;DHT22;55675;49.588;8.640;2023-03-01T17:06:52;15.50;25.20
68691;DHT22;55675;49.588;8.640;2023-03-01T17:09:18;14.80;26.50
68691;DHT22;55675;49.588;8.640;2023-03-01T17:11:47;14.30;26.80
68691;DHT22;55675;49.588;8.640;2023-03-01T17:14:13;13.80;28.00
68691;DHT22;55675;49.588;8.640;2023-03-01T17:16:40;13.30;27.70
68691;DHT22;55675;49.588;8.640;2023-03-01T17:19:06;12.90;28.60